Time;durP1;ratioP1;P1;durP2;ratioP2;P2;SDS_P1;SDS_P2;PMS_P1;PMS_P2;Temp;Humidity;BMP_temperature;BMP_pressure;BME280_temperature;BME280_humidity;BME280_pressure;Samples;Min_cycle;Max_cycle;Signal;HPM_P1;HPM_P2
2022/10/08 00:00:23;;;;;;;2.53;1.20;;;;;;;9.50;85.85;100987.25;5998551;28;20029;-67
2022/10/08 00:03:20;;;;;;;6.17;1.30;;;;;;;9.24;86.88;100995.75;5998816;28;20093;-67
2022/10/08 00:06:36;;;;;;;2.35;0.98;;;;;;;8.98;88.24;100990.00;5998789;28;20035;-67
2022/10/08 00:09:32;;;;;;;5.20;1.10;;;;;;;8.74;89.58;100992.06;5988629;28;20046;-67
2022/10/08 00:12:27;;;;;;;5.03;1.15;;;;;;;8.57;90.73;100990.81;5998111;28;20031;-67
2022/10/08 00:15:22;;;;;;;1.80;0.90;;;;;;;8.37;91.77;100991.59;5997894;28;20070;-67
2022/10/08 00:18:19;;;;;;;4.00;1.30;;;;;;;8.28;92.64;100992.38;5998722;28;20033;-67
2022/10/08 00:21:18;;;;;;;3.22;0.93;;;;;;;8.16;93.71;101010.00;5997881;28;20053;-67
2022/10/08 00:24:15;;;;;;;3.05;1.15;;;;;;;8.09;93.99;100998.28;5998058;28;20109;-67
2022/10/08 00:27:11;;;;;;;7.18;1.63;;;;;;;8.35;93.92;100991.75;6009401;28;20793;-67
2022/10/08 00:30:07;;;;;;;6.13;1.40;;;;;;;8.61;92.52;101001.97;6015497;28;20034;-67
2022/10/08 00:33:02;;;;;;;6.25;1.30;;;;;;;8.65;91.48;100991.03;6004877;28;20494;-67
2022/10/08 00:36:03;;;;;;;5.47;1.55;;;;;;;8.85;90.19;100989.38;6001586;28;20035;-67
2022/10/08 00:39:05;;;;;;;8.50;1.70;;;;;;;9.05;89.05;101004.38;6002961;28;20080;-67
2022/10/08 00:42:01;;;;;;;4.60;1.40;;;;;;;9.10;88.65;100994.28;6002482;28;20038;-67
2022/10/08 00:44:58;;;;;;;4.93;1.20;;;;;;;8.95;88.43;100971.75;6002773;28;20105;-67
2022/10/08 00:47:57;;;;;;;5.82;1.10;;;;;;;9.06;88.06;100982.28;6003038;28;20116;-67
2022/10/08 00:50:52;;;;;;;4.07;0.98;;;;;;;8.99;88.42;100968.72;6002029;28;20035;-67
2022/10/08 00:53:48;;;;;;;6.07;1.87;;;;;;;8.91;88.55;100962.41;6002847;28;20463;-67
2022/10/08 00:56:43;;;;;;;3.60;1.27;;;;;;;8.93;88.36;100955.19;6002548;28;20606;-67
2022/10/08 00:59:39;;;;;;;3.10;1.05;;;;;;;9.03;88.50;100977.25;6002366;28;20633;-67
2022/10/08 01:02:34;;;;;;;6.32;1.23;;;;;;;9.00;87.91;100974.84;6001499;28;20038;-67
2022/10/08 01:05:38;;;;;;;5.50;1.35;;;;;;;9.06;88.16;100976.97;5994151;28;20034;-67
2022/10/08 01:08:40;;;;;;;5.60;1.20;;;;;;;9.03;88.26;100971.09;6002237;28;20038;-67
2022/10/08 01:12:02;;;;;;;6.30;1.30;;;;;;;9.02;88.94;100965.00;6001582;28;20035;-67
2022/10/08 01:15:13;;;;;;;6.82;1.73;;;;;;;8.95;89.10;100969.13;5986389;28;20611;-67
2022/10/08 01:18:36;;;;;;;3.78;1.20;;;;;;;8.94;89.46;100954.22;5984815;28;20087;-67
2022/10/08 01:21:36;;;;;;;3.40;0.90;;;;;;;8.85;89.55;100970.88;5994968;28;20495;-67
2022/10/08 01:28:28;;;;;;;2.13;1.00;;;;;;;8.61;90.54;100967.63;5999244;28;20047;-67
2022/10/08 01:31:25;;;;;;;;;;;;;;;8.58;90.78;100968.72;6001982;28;20542;-67
2022/10/08 01:34:25;;;;;;;2.08;1.20;;;;;;;8.56;91.61;100975.09;5999871;28;19914;-67
2022/10/08 01:37:25;;;;;;;6.22;1.17;;;;;;;8.52;91.36;100963.94;6001025;28;20037;-67
2022/10/08 01:40:26;;;;;;;3.40;1.10;;;;;;;8.65;90.98;100983.09;5999974;28;20042;-66
2022/10/08 01:43:22;;;;;;;5.45;1.40;;;;;;;8.54;91.01;100961.16;6000264;28;20031;-67
2022/10/08 01:46:26;;;;;;;8.73;1.20;;;;;;;8.46;91.62;100963.59;5999150;28;20046;-67
2022/10/08 01:49:24;;;;;;;4.15;1.23;;;;;;;8.62;91.68;100964.84;5999900;28;20041;-67
2022/10/08 01:52:24;;;;;;;6.15;1.70;;;;;;;8.60;91.41;100968.56;6015874;28;20422;-67
2022/10/08 01:55:23;;;;;;;4.75;1.40;;;;;;;8.60;91.41;100958.00;5999559;28;20045;-67
2022/10/08 01:58:30;;;;;;;6.28;1.48;;;;;;;8.65;91.25;100955.81;6000420;28;20462;-66
2022/10/08 02:01:38;;;;;;;3.67;1.13;;;;;;;8.73;91.50;100956.00;6000403;28;20486;-67
2022/10/08 02:04:33;;;;;;;8.65;1.60;;;;;;;8.90;90.46;100951.00;5999174;28;20079;-67
2022/10/08 02:07:31;;;;;;;2.97;1.08;;;;;;;8.94;90.22;100949.75;6000775;28;20610;-67
2022/10/08 02:10:26;;;;;;;3.15;1.00;;;;;;;9.07;89.92;100954.88;5998816;28;20115;-68
2022/10/08 02:13:22;;;;;;;6.35;1.70;;;;;;;9.16;89.37;100959.34;6000724;28;20190;-67
2022/10/08 02:16:25;;;;;;;2.78;1.48;;;;;;;9.23;88.40;100936.72;5999232;28;20038;-67
2022/10/08 02:19:36;;;;;;;6.43;1.38;;;;;;;9.19;89.05;100956.44;6000532;28;20042;-67
2022/10/08 02:22:34;;;;;;;8.02;1.63;;;;;;;9.22;88.69;100956.19;5998749;28;20062;-67
2022/10/08 02:25:35;;;;;;;5.50;1.50;;;;;;;9.17;89.03;100946.97;5999540;28;20030;-67
2022/10/08 02:29:02;;;;;;;3.92;1.95;;;;;;;9.27;89.06;100951.34;6005702;28;20717;-67
2022/10/08 02:32:06;;;;;;;4.63;1.10;;;;;;;9.22;89.13;100935.03;5986617;28;20046;-67
2022/10/08 02:35:17;;;;;;;5.22;1.88;;;;;;;9.25;88.88;100936.56;5999733;28;20125;-67
2022/10/08 02:38:17;;;;;;;3.38;1.38;;;;;;;9.30;89.24;100944.94;5999152;28;20038;-67
2022/10/08 02:41:13;;;;;;;4.97;1.33;;;;;;;9.24;89.33;100930.44;5998292;28;20031;-67
2022/10/08 02:44:16;;;;;;;8.73;1.52;;;;;;;9.26;89.25;100939.09;6000039;28;20109;-67
2022/10/08 02:47:15;;;;;;;10.38;1.88;;;;;;;9.25;89.41;100918.03;6000376;28;20027;-67
2022/10/08 02:50:14;;;;;;;9.52;1.98;;;;;;;9.35;89.27;100929.50;5998240;28;20065;-67
2022/10/08 02:53:13;;;;;;;5.45;1.55;;;;;;;9.23;89.30;100923.47;5998876;28;20101;-67
2022/10/08 02:56:14;;;;;;;6.82;1.67;;;;;;;9.29;89.50;100935.34;5998203;28;20092;-67
2022/10/08 02:59:10;;;;;;;10.25;1.55;;;;;;;9.26;89.60;100936.44;5998731;28;20073;-67
2022/10/08 03:02:05;;;;;;;6.03;1.42;;;;;;;9.25;90.42;100940.06;5997777;28;20035;-67
2022/10/08 03:05:04;;;;;;;8.05;1.48;;;;;;;9.12;90.51;100938.59;5999894;28;20073;-67
2022/10/08 03:08:00;;;;;;;5.20;1.40;;;;;;;9.01;91.10;100942.16;5999043;28;20442;-67
2022/10/08 03:10:55;;;;;;;8.93;1.52;;;;;;;8.90;91.55;100934.28;6013850;28;20034;-67
2022/10/08 03:13:56;;;;;;;8.65;2.50;;;;;;;8.81;91.80;100935.06;6014601;28;20038;-67
2022/10/08 03:16:53;;;;;;;7.60;1.60;;;;;;;8.82;92.63;100936.75;5998276;28;20031;-67
2022/10/08 03:19:48;;;;;;;8.60;1.45;;;;;;;8.86;92.67;100938.13;5999592;28;20031;-67
2022/10/08 03:22:43;;;;;;;6.57;1.73;;;;;;;8.82;92.68;100942.03;5998052;28;20118;-67
2022/10/08 03:25:39;;;;;;;7.50;1.52;;;;;;;8.74;93.09;100924.19;5999454;28;20313;-68
2022/10/08 03:28:34;;;;;;;9.00;1.40;;;;;;;8.76;93.02;100916.09;6021749;28;20533;-67
2022/10/08 03:31:29;;;;;;;5.33;1.50;;;;;;;8.73;93.05;100924.28;6022143;28;20592;-67
2022/10/08 03:34:25;;;;;;;6.72;1.60;;;;;;;8.74;93.25;100920.69;6005432;28;20294;-67
2022/10/08 03:37:20;;;;;;;3.50;1.77;;;;;;;8.79;93.13;100931.72;5999288;28;20081;-67
2022/10/08 03:40:16;;;;;;;6.60;1.73;;;;;;;8.69;93.06;100920.25;5998293;28;20896;-67
2022/10/08 03:43:12;;;;;;;4.60;1.73;;;;;;;8.72;93.96;100935.84;5999295;28;20097;-67
2022/10/08 03:46:08;;;;;;;8.27;1.83;;;;;;;8.71;93.75;100932.34;5998655;28;20039;-67
2022/10/08 03:49:04;;;;;;;7.25;1.70;;;;;;;8.68;93.60;100934.41;5999227;28;20094;-67
2022/10/08 03:51:59;;;;;;;6.57;1.60;;;;;;;8.63;94.19;100932.16;5998109;28;20038;-67
2022/10/08 03:54:54;;;;;;;8.48;1.65;;;;;;;8.58;94.34;100923.78;5998695;28;20474;-67
2022/10/08 03:57:51;;;;;;;6.83;1.60;;;;;;;8.73;94.24;100926.94;5998826;28;20034;-67
2022/10/08 04:01:04;;;;;;;7.80;1.90;;;;;;;8.74;94.00;100913.59;5998105;28;20030;-68
2022/10/08 04:03:59;;;;;;;5.95;1.50;;;;;;;8.85;93.72;100921.47;5994945;28;20031;-67
2022/10/08 04:06:54;;;;;;;3.87;1.50;;;;;;;8.99;93.61;100918.47;6003006;28;20030;-67
2022/10/08 04:09:50;;;;;;;12.37;1.80;;;;;;;9.17;92.43;100924.00;6023734;28;20048;-67
2022/10/08 04:12:45;;;;;;;4.60;1.53;;;;;;;9.35;91.42;100924.19;6005790;28;20310;-67
2022/10/08 04:15:41;;;;;;;7.88;2.05;;;;;;;9.40;91.02;100909.59;6003679;28;20041;-67
2022/10/08 04:18:37;;;;;;;10.38;1.80;;;;;;;9.56;90.05;100928.50;6024116;28;20023;-68
2022/10/08 04:21:32;;;;;;;4.63;1.35;;;;;;;9.52;89.89;100919.13;6026410;28;20041;-67
2022/10/08 04:24:29;;;;;;;8.03;1.60;;;;;;;9.53;89.81;100915.53;6027039;28;20030;-68
2022/10/08 04:27:24;;;;;;;7.78;1.67;;;;;;;9.47;90.12;100910.75;6021488;28;20293;-67
2022/10/08 04:30:19;;;;;;;6.93;1.77;;;;;;;9.53;90.46;100925.28;6001709;28;20034;-67
2022/10/08 04:33:16;;;;;;;6.17;1.83;;;;;;;9.48;90.19;100914.25;6003324;28;20273;-68
2022/10/08 04:36:14;;;;;;;3.22;1.20;;;;;;;9.57;90.05;100924.84;6003242;28;20042;-68
2022/10/08 04:39:09;;;;;;;4.60;1.50;;;;;;;9.57;90.14;100929.31;6003218;28;20031;-68
2022/10/08 04:42:05;;;;;;;5.57;1.60;;;;;;;9.57;90.17;100934.59;6002482;28;20445;-67
2022/10/08 04:45:00;;;;;;;7.70;1.60;;;;;;;9.54;90.42;100941.00;6003044;28;20282;-67
2022/10/08 04:47:55;;;;;;;6.10;1.40;;;;;;;9.62;90.36;100936.88;6003172;28;20035;-67
2022/10/08 04:50:59;;;;;;;3.40;1.87;;;;;;;9.70;90.76;100931.75;6002137;28;20058;-67
2022/10/08 04:53:55;;;;;;;6.88;1.67;;;;;;;9.83;89.87;100940.28;6002648;28;20043;-67
2022/10/08 04:56:51;;;;;;;5.38;1.35;;;;;;;9.95;88.88;100934.72;6001743;28;20368;-67
2022/10/08 04:59:46;;;;;;;7.30;1.97;;;;;;;10.16;88.46;100937.31;6002406;28;20034;-67
2022/10/08 05:02:41;;;;;;;7.47;1.60;;;;;;;10.17;88.11;100938.97;6001638;28;20278;-67
2022/10/08 05:05:41;;;;;;;5.30;1.70;;;;;;;10.19;87.85;100944.97;6003754;28;20402;-67
2022/10/08 05:08:36;;;;;;;6.00;1.52;;;;;;;10.30;87.33;100944.81;6002710;28;20039;-67
2022/10/08 05:11:32;;;;;;;9.90;2.60;;;;;;;10.42;87.36;100951.69;6001470;28;20070;-67
2022/10/08 05:14:28;;;;;;;6.53;1.50;;;;;;;10.33;87.18;100941.91;6002127;28;20274;-68
2022/10/08 05:17:23;;;;;;;6.27;1.80;;;;;;;10.35;87.58;100941.78;6001413;28;20039;-67
2022/10/08 05:20:18;;;;;;;5.70;1.57;;;;;;;10.40;87.50;100961.59;6001403;28;20039;-68
2022/10/08 05:23:14;;;;;;;7.00;1.53;;;;;;;10.37;87.26;100956.56;6000947;28;20310;-68
2022/10/08 05:26:19;;;;;;;11.87;1.90;;;;;;;10.35;87.46;100953.22;6001665;28;20034;-68
2022/10/08 05:29:15;;;;;;;8.32;1.52;;;;;;;10.28;88.04;100954.72;6001867;28;20035;-67
2022/10/08 05:32:10;;;;;;;9.27;1.90;;;;;;;10.32;87.99;100950.00;6001537;28;20458;-67
2022/10/08 05:35:06;;;;;;;8.37;1.63;;;;;;;10.33;88.38;100951.69;6001074;28;20085;-67
2022/10/08 05:38:01;;;;;;;5.22;1.80;;;;;;;10.37;87.99;100956.56;6001182;28;20033;-67
2022/10/08 05:41:16;;;;;;;10.15;3.03;;;;;;;10.44;88.27;100962.97;6000586;28;20077;-67
2022/10/08 05:44:12;;;;;;;8.70;2.22;;;;;;;10.48;88.24;100975.00;6014435;28;20030;-68
2022/10/08 05:47:07;;;;;;;4.15;1.50;;;;;;;10.51;87.96;100958.81;6024760;28;20080;-67
2022/10/08 05:50:03;;;;;;;6.00;1.97;;;;;;;10.61;87.78;100978.19;6013683;28;20062;-67
2022/10/08 05:52:59;;;;;;;6.30;2.00;;;;;;;10.62;88.04;100971.09;6001619;28;20019;-68
2022/10/08 05:56:01;;;;;;;7.43;1.90;;;;;;;10.71;87.70;100984.34;6001603;28;20352;-67
2022/10/08 05:58:56;;;;;;;8.18;2.55;;;;;;;10.73;87.80;100973.59;6001278;28;20057;-67
2022/10/08 06:01:52;;;;;;;3.97;1.50;;;;;;;10.80;87.28;100973.84;6000640;28;20031;-67
2022/10/08 06:04:48;;;;;;;5.13;1.50;;;;;;;10.90;86.94;100990.63;6001108;28;20538;-68
2022/10/08 06:07:43;;;;;;;8.85;2.13;;;;;;;10.89;87.28;100995.09;6000663;28;20467;-67
2022/10/08 06:10:47;;;;;;;5.97;1.87;;;;;;;10.86;87.38;100992.72;6000714;28;20030;-68
2022/10/08 06:13:43;;;;;;;7.05;1.98;;;;;;;10.88;87.32;100997.88;6000838;28;20034;-68
2022/10/08 06:16:39;;;;;;;9.00;1.83;;;;;;;10.91;86.90;100998.44;6001268;28;20475;-67
2022/10/08 06:19:36;;;;;;;8.77;1.70;;;;;;;10.97;87.00;101020.91;6000931;28;20034;-67
2022/10/08 06:22:31;;;;;;;8.00;2.38;;;;;;;10.94;86.93;101008.75;6000094;28;20379;-67
2022/10/08 06:25:26;;;;;;;6.87;1.90;;;;;;;11.04;87.24;101024.66;6000520;28;20053;-67
2022/10/08 06:28:21;;;;;;;7.50;1.80;;;;;;;11.06;87.17;101028.03;6000339;28;20069;-68
2022/10/08 06:31:17;;;;;;;7.10;1.90;;;;;;;11.06;87.28;101033.34;5999871;28;20048;-68
2022/10/08 06:34:13;;;;;;;19.02;2.38;;;;;;;11.06;87.58;101036.81;6001508;28;20391;-67
2022/10/08 06:37:09;;;;;;;10.13;2.05;;;;;;;11.02;87.41;101021.31;6000044;28;20375;-68
2022/10/08 06:40:04;;;;;;;8.13;2.20;;;;;;;11.04;88.38;101035.28;5999662;28;20038;-67
2022/10/08 06:43:06;;;;;;;9.73;2.40;;;;;;;10.97;88.43;101024.41;6000176;28;20023;-67
2022/10/08 06:46:05;;;;;;;8.52;2.15;;;;;;;11.06;88.29;101028.03;6007403;28;20100;-67
2022/10/08 06:49:01;;;;;;;7.57;3.00;;;;;;;10.99;88.48;101000.38;6023433;28;20438;-67
2022/10/08 06:51:56;;;;;;;7.10;3.00;;;;;;;11.08;89.23;101008.34;6023026;28;20041;-67
2022/10/08 06:54:51;;;;;;;9.90;3.77;;;;;;;11.08;89.45;101000.38;6005593;28;20352;-68
2022/10/08 06:57:47;;;;;;;9.43;3.47;;;;;;;11.16;89.13;101019.06;5999686;28;20050;-67
2022/10/08 07:00:42;;;;;;;13.63;3.00;;;;;;;11.11;89.70;101031.09;5998945;28;20039;-67
2022/10/08 07:03:37;;;;;;;14.37;3.67;;;;;;;11.26;89.75;101048.25;5999268;28;20313;-67
2022/10/08 07:06:34;;;;;;;11.35;3.03;;;;;;;11.30;89.33;101065.59;5998862;28;20069;-67
2022/10/08 07:09:29;;;;;;;6.90;2.95;;;;;;;11.23;90.01;101061.78;5999577;28;20027;-68
2022/10/08 07:12:25;;;;;;;12.93;3.17;;;;;;;11.37;89.58;101053.41;5998527;28;20386;-67
2022/10/08 07:15:20;;;;;;;8.67;2.83;;;;;;;11.31;89.87;101038.88;5999314;28;20070;-68
2022/10/08 07:18:15;;;;;;;9.23;3.42;;;;;;;11.35;89.70;101056.22;5998803;28;20122;-67
2022/10/08 07:21:13;;;;;;;12.73;3.20;;;;;;;11.25;90.58;101058.03;5998364;28;20494;-68
2022/10/08 07:24:08;;;;;;;9.40;3.25;;;;;;;11.33;90.56;101076.72;6001917;28;20309;-68
2022/10/08 07:27:03;;;;;;;12.15;3.13;;;;;;;11.20;91.09;101051.47;5999374;28;20035;-68
2022/10/08 07:29:59;;;;;;;10.43;3.03;;;;;;;11.29;91.81;101055.94;5999694;28;20089;-68
2022/10/08 07:32:54;;;;;;;12.77;3.30;;;;;;;11.15;92.90;101059.84;6021709;28;20026;-68
2022/10/08 07:35:49;;;;;;;7.83;3.23;;;;;;;11.13;94.80;101084.88;6006446;28;20318;-67
2022/10/08 07:38:45;;;;;;;14.27;3.53;;;;;;;11.08;95.47;101087.09;5998808;28;20110;-67
2022/10/08 07:41:40;;;;;;;13.32;3.72;;;;;;;11.00;96.39;101082.50;5998268;28;20294;-68
2022/10/08 07:44:36;;;;;;;7.63;3.40;;;;;;;10.99;97.12;101101.22;5998462;28;20065;-68
2022/10/08 07:47:31;;;;;;;11.07;3.83;;;;;;;10.94;97.09;101091.03;5999010;28;20031;-67
2022/10/08 07:50:26;;;;;;;10.52;3.47;;;;;;;11.01;97.12;101104.53;5998384;28;20525;-67
2022/10/08 07:53:22;;;;;;;15.07;4.30;;;;;;;11.06;97.55;101112.97;5999096;28;20039;-67
2022/10/08 07:56:18;;;;;;;9.10;3.47;;;;;;;11.13;97.10;101108.75;5998767;28;20062;-68
2022/10/08 07:59:14;;;;;;;9.88;3.53;;;;;;;11.11;96.93;101110.72;5998736;28;20290;-69
2022/10/08 08:02:10;;;;;;;13.07;4.07;;;;;;;11.23;96.99;101125.50;5997961;28;20086;-67
2022/10/08 08:05:05;;;;;;;11.53;3.47;;;;;;;11.26;97.66;101131.38;5998639;28;20038;-69
2022/10/08 08:08:01;;;;;;;9.15;3.95;;;;;;;11.20;97.66;101117.81;5998505;28;20058;-66
2022/10/08 08:10:58;;;;;;;9.83;4.17;;;;;;;11.36;97.72;101126.06;5997991;28;20035;-67
2022/10/08 08:13:53;;;;;;;9.35;4.18;;;;;;;11.54;97.10;101129.69;5998770;28;20353;-68
2022/10/08 08:16:48;;;;;;;8.30;3.60;;;;;;;11.49;96.08;101121.31;5998760;28;20022;-68
2022/10/08 08:19:44;;;;;;;11.93;3.57;;;;;;;11.66;95.68;101141.81;5998737;28;20037;-67
2022/10/08 08:22:39;;;;;;;11.13;3.83;;;;;;;11.85;95.11;101133.00;5997737;28;20271;-67
2022/10/08 08:25:34;;;;;;;8.13;3.70;;;;;;;12.06;93.04;101140.78;5998331;28;20270;-67
2022/10/08 08:28:29;;;;;;;26.30;4.30;;;;;;;12.22;92.01;101141.00;5998596;28;20125;-68
2022/10/08 08:31:27;;;;;;;9.23;3.60;;;;;;;12.43;91.79;101154.91;5996470;28;20033;-68
2022/10/08 08:34:23;;;;;;;8.20;3.15;;;;;;;12.48;90.40;101142.84;5998686;28;20050;-67
2022/10/08 08:37:19;;;;;;;7.72;3.17;;;;;;;12.37;89.16;101155.50;5998761;28;20062;-66
2022/10/08 08:40:14;;;;;;;6.70;3.07;;;;;;;12.46;89.49;101166.09;5998598;28;20073;-67
2022/10/08 08:43:10;;;;;;;8.63;3.28;;;;;;;12.50;89.27;101166.66;6006757;28;20332;-67
2022/10/08 08:46:05;;;;;;;8.80;3.35;;;;;;;12.60;88.84;101170.09;6021708;28;20108;-67
2022/10/08 08:49:04;;;;;;;10.43;3.17;;;;;;;12.67;88.48;101178.31;5990272;28;20046;-67
2022/10/08 08:52:02;;;;;;;6.28;3.40;;;;;;;12.67;88.37;101184.47;6011469;28;20109;-67
2022/10/08 08:54:57;;;;;;;8.98;3.15;;;;;;;12.82;87.54;101188.34;6021906;28;20034;-67
2022/10/08 08:58:02;;;;;;;8.63;3.33;;;;;;;12.71;86.70;101201.00;6001124;28;20114;-67
2022/10/08 09:01:12;;;;;;;8.77;3.83;;;;;;;12.63;87.63;101198.22;6002224;28;20121;-67
2022/10/08 09:04:28;;;;;;;8.10;3.33;;;;;;;12.56;88.80;101203.28;6001490;28;20042;-67
2022/10/08 09:07:26;;;;;;;6.88;2.65;;;;;;;12.68;88.74;101201.28;6002008;28;20068;-67
2022/10/08 09:11:01;;;;;;;9.63;3.00;;;;;;;12.72;88.43;101208.81;6000409;28;20033;-67
2022/10/08 09:14:00;;;;;;;6.70;3.05;;;;;;;12.73;88.04;101189.22;6000704;28;20118;-67
2022/10/08 09:16:55;;;;;;;11.82;3.67;;;;;;;13.02;87.33;101205.84;6001794;28;20034;-67
2022/10/08 09:19:51;;;;;;;7.75;3.13;;;;;;;13.46;85.79;101208.66;6000848;28;20102;-67
2022/10/08 09:22:48;;;;;;;6.97;3.10;;;;;;;13.89;82.94;101202.53;6001630;28;20035;-67
2022/10/08 09:25:57;;;;;;;6.57;2.55;;;;;;;13.88;81.60;101198.19;6000904;28;20610;-67
2022/10/08 09:28:54;;;;;;;8.00;3.17;;;;;;;14.04;80.82;101215.16;6000464;28;20074;-67
2022/10/08 09:31:49;;;;;;;9.90;2.70;;;;;;;13.97;80.89;101200.75;5999879;28;20430;-67
2022/10/08 09:34:47;;;;;;;6.70;2.60;;;;;;;13.85;80.94;101199.34;6002196;28;20078;-67
2022/10/08 09:37:45;;;;;;;8.20;3.97;;;;;;;13.92;81.46;101216.38;6003849;28;20277;-67
2022/10/08 09:40:59;;;;;;;7.45;3.03;;;;;;;13.71;82.06;101229.22;6024453;28;20037;-67
2022/10/08 09:44:11;;;;;;;6.97;2.78;;;;;;;13.72;83.04;101233.56;6020654;28;20390;-67
2022/10/08 09:47:10;;;;;;;7.70;2.70;;;;;;;13.85;82.60;101230.50;5999514;28;20109;-67
2022/10/08 09:50:15;;;;;;;10.02;2.42;;;;;;;13.98;80.74;101231.75;6000850;28;20541;-67
2022/10/08 09:53:10;;;;;;;7.97;2.25;;;;;;;13.88;81.43;101239.03;6001693;28;20047;-67
2022/10/08 09:56:06;;;;;;;7.47;2.67;;;;;;;13.92;81.72;101234.19;6001481;28;20027;-67
2022/10/08 09:59:03;;;;;;;11.38;3.17;;;;;;;14.14;81.08;101231.88;6015996;28;20037;-67
2022/10/08 10:01:58;;;;;;;10.80;2.67;;;;;;;14.28;80.04;101233.97;5999685;28;20035;-66
2022/10/08 10:04:54;;;;;;;5.87;2.13;;;;;;;14.56;78.07;101237.34;6003943;28;20023;-67
2022/10/08 10:07:50;;;;;;;6.10;2.15;;;;;;;14.37;78.37;101247.41;6006728;28;20382;-67
2022/10/08 10:10:45;;;;;;;8.13;2.13;;;;;;;14.06;78.28;101234.50;6022062;28;20051;-67
2022/10/08 10:13:41;;;;;;;7.90;2.55;;;;;;;14.09;78.71;101239.53;6020709;28;20038;-67
2022/10/08 10:16:40;;;;;;;8.70;2.30;;;;;;;14.21;77.69;101230.25;6002960;28;20033;-67
2022/10/08 10:19:43;;;;;;;5.05;2.00;;;;;;;14.67;77.06;101225.56;6000617;28;20027;-67
2022/10/08 10:22:56;;;;;;;10.60;2.67;;;;;;;15.71;73.85;101232.22;6010208;28;20070;-67
2022/10/08 10:25:57;;;;;;;7.88;1.98;;;;;;;16.02;71.01;101238.53;5998894;28;20045;-67
2022/10/08 10:28:58;;;;;;;6.95;1.70;;;;;;;15.77;71.68;101242.22;5999436;28;20105;-67
2022/10/08 10:32:01;;;;;;;7.78;1.85;;;;;;;15.45;71.19;101238.50;5999831;28;20042;-67
2022/10/08 10:35:03;;;;;;;5.15;1.80;;;;;;;15.28;72.02;101228.75;5998779;28;20034;-67
2022/10/08 10:38:08;;;;;;;9.25;1.60;;;;;;;15.41;72.46;101238.97;5999326;28;20031;-67
2022/10/08 10:41:28;;;;;;;8.23;2.05;;;;;;;14.93;71.40;101250.34;5998472;28;20445;-67
2022/10/08 10:44:33;;;;;;;8.00;1.83;;;;;;;14.70;72.22;101233.25;5998432;28;20754;-67
2022/10/08 10:47:30;;;;;;;5.35;1.55;;;;;;;15.20;71.68;101225.22;5998983;28;20035;-67
2022/10/08 10:50:44;;;;;;;7.47;1.48;;;;;;;15.86;69.61;101217.16;5998898;28;20385;-67
2022/10/08 10:54:02;;;;;;;7.30;1.60;;;;;;;16.31;67.51;101233.47;5995817;28;20085;-67
2022/10/08 10:57:04;;;;;;;6.68;1.50;;;;;;;16.99;63.18;101232.94;5999350;28;20053;-68
2022/10/08 11:00:05;;;;;;;5.65;1.40;;;;;;;16.81;63.71;101229.69;5998675;28;20039;-67
2022/10/08 11:03:27;;;;;;;9.63;2.00;;;;;;;16.21;65.19;101235.53;5997571;28;20097;-67
2022/10/08 11:06:29;;;;;;;3.72;1.13;;;;;;;16.41;63.76;101228.81;5999197;28;20034;-67
2022/10/08 11:09:59;;;;;;;6.28;1.58;;;;;;;16.38;64.58;101223.78;5999334;28;20530;-68
2022/10/08 11:13:13;;;;;;;5.43;1.30;;;;;;;16.35;64.19;101212.56;5989221;28;20089;-67
2022/10/08 11:16:14;;;;;;;11.63;1.88;;;;;;;16.24;64.58;101234.34;6014068;28;20042;-67
2022/10/08 11:19:33;;;;;;;5.20;1.50;;;;;;;15.78;66.23;101225.19;5997206;28;20739;-67
2022/10/08 11:22:44;;;;;;;5.15;1.73;;;;;;;15.69;67.51;101231.53;5998102;28;20050;-67
2022/10/08 11:25:46;;;;;;;3.30;1.50;;;;;;;15.42;66.88;101201.41;5997566;28;20873;-67
2022/10/08 11:28:59;;;;;;;8.65;1.40;;;;;;;15.29;67.65;101234.94;6021547;28;20077;-67
2022/10/08 11:31:55;;;;;;;7.70;1.63;;;;;;;15.13;67.13;101208.19;5997430;28;20039;-67
2022/10/08 11:34:58;;;;;;;3.50;1.55;;;;;;;15.32;67.38;101208.75;5997107;28;20110;-67
2022/10/08 11:38:08;;;;;;;8.38;1.70;;;;;;;15.12;65.70;101206.50;5997485;28;20053;-67
2022/10/08 11:41:05;;;;;;;6.70;1.48;;;;;;;15.90;65.31;101229.19;5996516;28;20030;-67
2022/10/08 11:44:01;;;;;;;4.72;1.38;;;;;;;16.15;63.51;101222.81;5997946;28;20225;-67
2022/10/08 11:47:39;;;;;;;2.30;1.25;;;;;;;15.89;62.84;101227.53;5997928;28;20110;-67
2022/10/08 11:50:36;;;;;;;4.68;1.08;;;;;;;15.61;65.25;101219.00;5998466;28;20385;-67
2022/10/08 11:53:31;;;;;;;4.07;1.30;;;;;;;15.54;65.33;101206.47;5997469;28;20352;-67
2022/10/08 11:56:27;;;;;;;7.53;1.20;;;;;;;15.55;64.62;101216.13;5997321;28;20042;-67
2022/10/08 11:59:41;;;;;;;6.85;1.35;;;;;;;15.65;65.90;101219.50;6013396;28;20042;-68
2022/10/08 12:02:38;;;;;;;4.65;1.38;;;;;;;15.95;63.83;101205.47;5996920;28;20113;-67
2022/10/08 12:05:39;;;;;;;7.20;1.40;;;;;;;16.30;63.24;101215.78;5996903;28;20045;-67
2022/10/08 12:08:49;;;;;;;5.65;1.48;;;;;;;16.37;63.25;101216.75;6013527;28;20463;-67
2022/10/08 12:11:46;;;;;;;3.42;1.33;;;;;;;16.16;62.51;101220.97;5996520;28;20039;-68
2022/10/08 12:14:46;;;;;;;4.68;1.33;;;;;;;15.79;64.13;101261.63;5998349;28;20071;-67
2022/10/08 12:18:21;;;;;;;4.97;0.60;;;;;;;13.94;66.88;101272.25;5998310;28;20042;-67
2022/10/08 12:21:16;;;;;;;4.10;0.98;;;;;;;12.25;82.10;101274.53;5997006;28;20057;-66
2022/10/08 12:24:37;;;;;;;2.70;0.93;;;;;;;11.31;89.81;101284.94;5998386;28;20038;-65
2022/10/08 12:27:36;;;;;;;7.63;1.55;;;;;;;10.86;93.37;101278.41;6008208;28;20037;-66
2022/10/08 12:30:57;;;;;;;4.93;1.52;;;;;;;10.73;96.45;101295.38;5998154;28;20065;-66
2022/10/08 12:34:00;;;;;;;4.90;1.10;;;;;;;10.48;97.44;101279.06;5994590;28;20422;-65
2022/10/08 12:37:26;;;;;;;5.05;1.38;;;;;;;10.73;99.11;101292.72;6002866;28;20058;-65
2022/10/08 12:40:31;;;;;;;2.95;1.70;;;;;;;11.06;100.00;101290.78;6000774;28;20466;-65
2022/10/08 12:43:42;;;;;;;2.47;1.20;;;;;;;11.11;98.73;101291.22;6021020;28;20042;-65
2022/10/08 12:46:50;;;;;;;3.25;1.00;;;;;;;11.27;96.56;101280.91;5999021;28;20038;-65
2022/10/08 12:49:52;;;;;;;2.15;0.90;;;;;;;11.47;94.44;101290.56;6004058;28;20039;-65
2022/10/08 12:52:47;;;;;;;3.33;1.38;;;;;;;11.79;94.43;101293.03;6000254;28;20138;-65
2022/10/08 12:55:48;;;;;;;4.13;0.83;;;;;;;11.76;89.62;101283.53;6017150;28;20109;-66
2022/10/08 12:58:44;;;;;;;3.28;0.88;;;;;;;11.79;86.78;101307.16;6000954;28;20704;-66
2022/10/08 13:01:41;;;;;;;2.17;0.70;;;;;;;11.74;85.48;101296.09;6000149;28;20037;-66
2022/10/08 13:04:44;;;;;;;1.77;0.70;;;;;;;11.74;84.76;101287.31;6002384;28;20389;-66
2022/10/08 13:07:40;;;;;;;3.33;0.88;;;;;;;11.60;84.15;101272.56;5993251;28;20066;-66
2022/10/08 13:10:35;;;;;;;2.93;0.60;;;;;;;11.74;82.47;101280.13;6024878;28;20037;-66
2022/10/08 13:13:36;;;;;;;2.57;0.60;;;;;;;11.70;84.21;101292.03;6002618;28;20042;-66
2022/10/08 13:16:45;;;;;;;1.65;0.80;;;;;;;11.78;83.81;101296.66;6001708;28;20165;-66
2022/10/08 13:19:41;;;;;;;3.60;0.70;;;;;;;11.98;81.06;101295.69;6002421;28;20023;-66
2022/10/08 13:22:36;;;;;;;2.83;0.68;;;;;;;12.13;79.25;101285.44;6001328;28;20077;-67
2022/10/08 13:25:37;;;;;;;1.33;0.60;;;;;;;12.66;78.13;101297.25;6001625;28;20034;-67
2022/10/08 13:28:32;;;;;;;0.85;0.35;;;;;;;13.23;75.87;101269.53;6007061;28;20118;-67
2022/10/08 13:31:28;;;;;;;0.93;0.50;;;;;;;13.62;74.36;101291.41;5999773;28;20026;-67
2022/10/08 13:34:44;;;;;;;1.87;0.70;;;;;;;13.78;73.13;101299.56;6001474;28;20086;-67
2022/10/08 13:37:41;;;;;;;2.97;0.70;;;;;;;14.28;73.71;101303.34;6001086;28;20043;-67
2022/10/08 13:40:37;;;;;;;2.35;0.63;;;;;;;14.38;71.50;101294.47;6001158;28;20522;-67
2022/10/08 13:43:33;;;;;;;1.60;0.80;;;;;;;14.46;72.22;101270.50;6000501;28;20098;-67
2022/10/08 13:46:28;;;;;;;2.30;0.68;;;;;;;14.24;70.42;101296.63;6000546;28;20073;-67
2022/10/08 13:49:26;;;;;;;2.50;0.70;;;;;;;14.24;71.08;101306.50;6001439;28;20162;-67
2022/10/08 13:52:23;;;;;;;2.78;0.75;;;;;;;13.92;72.60;101312.38;6000143;28;20031;-67
2022/10/08 13:55:25;;;;;;;4.22;0.80;;;;;;;13.87;73.95;101314.66;6015649;28;20038;-67
2022/10/08 13:58:20;;;;;;;1.77;0.65;;;;;;;14.08;73.39;101306.34;6000463;28;20023;-67
2022/10/08 14:01:16;;;;;;;4.32;0.90;;;;;;;14.22;73.82;101325.31;6000298;28;20558;-67